createdAt,value
2023-02-05T00:00:59.798Z,3.90
2023-02-05T00:03:26.673Z,4.03
2023-02-05T00:05:53.525Z,4.50
2023-02-05T00:08:20.422Z,4.50
2023-02-05T00:10:52.742Z,3.73
2023-02-05T00:13:19.793Z,4.20
2023-02-05T00:15:46.690Z,3.90
2023-02-05T00:18:13.732Z,4.10
2023-02-05T00:20:40.669Z,3.90
2023-02-05T00:23:07.512Z,4.07
2023-02-05T00:25:34.697Z,4.63
2023-02-05T00:28:01.686Z,4.10
2023-02-05T00:30:28.611Z,3.80
2023-02-05T00:32:55.464Z,4.00
2023-02-05T00:35:22.276Z,3.87
2023-02-05T00:37:49.101Z,3.30
2023-02-05T00:40:15.945Z,3.90
2023-02-05T00:42:42.784Z,3.60
2023-02-05T00:45:09.973Z,3.97
2023-02-05T00:47:36.829Z,3.40
2023-02-05T00:50:03.918Z,3.43
2023-02-05T00:52:30.906Z,3.87
2023-02-05T00:54:58.369Z,3.77
2023-02-05T00:57:25.167Z,3.43
2023-02-05T00:59:53.115Z,3.43
2023-02-05T01:02:23.903Z,3.63
2023-02-05T01:04:51.854Z,3.77
2023-02-05T01:07:20.342Z,4.27
2023-02-05T01:09:47.199Z,4.03
2023-02-05T01:12:14.445Z,3.70
2023-02-05T01:14:42.197Z,3.83
2023-02-05T01:17:09.529Z,3.80
2023-02-05T01:19:36.981Z,4.07
2023-02-05T01:22:04.745Z,4.00
2023-02-05T01:24:31.969Z,3.60
2023-02-05T01:26:59.087Z,3.87
2023-02-05T01:29:28.382Z,3.83
2023-02-05T01:31:56.195Z,4.07
2023-02-05T01:34:23.185Z,3.90
2023-02-05T01:36:50.137Z,4.20
2023-02-05T01:39:16.988Z,4.23
2023-02-05T01:41:45.680Z,3.50
2023-02-05T01:44:24.931Z,3.53
2023-02-05T01:46:53.597Z,4.07
2023-02-05T01:49:42.844Z,3.80
2023-02-05T01:52:16.265Z,4.47
2023-02-05T01:54:46.718Z,4.53
2023-02-05T01:57:19.849Z,3.73
2023-02-05T01:59:47.630Z,4.50
2023-02-05T02:02:14.549Z,4.03
2023-02-05T02:04:44.156Z,4.17
2023-02-05T02:07:20.672Z,3.80
2023-02-05T02:09:48.960Z,3.80
2023-02-05T02:12:22.656Z,4.13
2023-02-05T02:14:53.899Z,4.00
2023-02-05T02:17:22.006Z,4.20
2023-02-05T02:20:02.246Z,4.03
2023-02-05T02:22:56.090Z,3.80
2023-02-05T02:25:44.266Z,4.20
2023-02-05T02:28:28.163Z,4.17
2023-02-05T02:30:59.362Z,4.30
2023-02-05T02:33:40.007Z,4.80
2023-02-05T02:36:24.659Z,4.40
2023-02-05T02:39:06.990Z,4.47
2023-02-05T02:41:53.950Z,4.57
2023-02-05T02:44:32.473Z,4.20
2023-02-05T02:47:03.650Z,3.93
2023-02-05T02:49:45.663Z,3.90
2023-02-05T02:52:16.975Z,3.80
2023-02-05T02:54:47.397Z,3.83
2023-02-05T02:57:17.329Z,3.87
2023-02-05T02:59:47.469Z,4.20
2023-02-05T03:02:16.056Z,3.63
2023-02-05T03:04:57.553Z,3.53
2023-02-05T03:07:33.055Z,3.90
2023-02-05T03:10:11.945Z,3.90
2023-02-05T03:12:39.023Z,3.57
2023-02-05T03:15:07.041Z,3.60
2023-02-05T03:17:34.865Z,3.83
2023-02-05T03:20:20.944Z,4.13
2023-02-05T03:22:47.908Z,4.40
2023-02-05T03:25:19.287Z,3.40
2023-02-05T03:27:46.667Z,3.83
2023-02-05T03:30:13.843Z,4.53
2023-02-05T03:33:04.060Z,4.03
2023-02-05T03:35:37.211Z,4.10
2023-02-05T03:38:09.780Z,4.80
2023-02-05T03:40:55.543Z,5.40
2023-02-05T03:43:30.435Z,5.20
2023-02-05T03:46:08.719Z,6.13
2023-02-05T03:49:01.542Z,5.67
2023-02-05T03:51:45.804Z,5.73
2023-02-05T03:54:16.585Z,5.47
2023-02-05T03:56:51.904Z,5.10
2023-02-05T03:59:20.516Z,5.40
2023-02-05T04:01:47.536Z,5.37
2023-02-05T04:04:14.677Z,6.10
2023-02-05T04:06:41.713Z,5.50
2023-02-05T04:09:10.652Z,5.30
2023-02-05T04:11:38.618Z,4.80
2023-02-05T04:14:05.623Z,5.07
2023-02-05T04:16:32.658Z,5.13
2023-02-05T04:18:59.634Z,4.87
2023-02-05T04:21:26.578Z,5.57
2023-02-05T04:23:53.516Z,4.73
2023-02-05T04:26:20.398Z,4.97
2023-02-05T04:28:47.249Z,4.57
2023-02-05T04:31:14.135Z,5.20
2023-02-05T04:33:42.006Z,6.07
2023-02-05T04:36:09.376Z,5.33
2023-02-05T04:38:36.666Z,5.50
2023-02-05T04:41:03.733Z,7.13
2023-02-05T04:43:30.558Z,6.73
2023-02-05T04:45:57.446Z,6.20
2023-02-05T04:48:24.317Z,5.60
2023-02-05T04:50:51.173Z,5.10
2023-02-05T04:53:18.018Z,5.70
2023-02-05T04:55:44.882Z,5.63
2023-02-05T04:58:11.704Z,5.50
2023-02-05T05:00:38.523Z,5.00
2023-02-05T05:03:05.590Z,4.83
2023-02-05T05:05:34.655Z,4.90
2023-02-05T05:08:01.632Z,5.17
2023-02-05T05:10:28.510Z,4.77
2023-02-05T05:12:55.355Z,4.20
2023-02-05T05:15:22.207Z,5.03
2023-02-05T05:17:48.998Z,4.70
2023-02-05T05:20:15.918Z,4.70
2023-02-05T05:22:42.767Z,4.53
2023-02-05T05:25:09.781Z,5.03
2023-02-05T05:27:36.628Z,4.67
2023-02-05T05:30:03.689Z,5.13
2023-02-05T05:32:30.521Z,5.80
2023-02-05T05:34:57.396Z,5.03
2023-02-05T05:37:24.247Z,5.47
2023-02-05T05:40:09.947Z,6.00
2023-02-05T05:42:56.995Z,5.13
2023-02-05T05:45:23.807Z,4.70
2023-02-05T05:47:50.819Z,5.30
2023-02-05T05:50:17.762Z,5.50
2023-02-05T05:52:44.592Z,5.57
2023-02-05T05:55:11.462Z,5.90
2023-02-05T05:57:38.322Z,6.37
2023-02-05T06:00:05.794Z,6.97
2023-02-05T06:02:32.643Z,6.77
2023-02-05T06:04:59.622Z,6.90
2023-02-05T06:07:26.441Z,8.13
2023-02-05T06:09:53.235Z,9.60
2023-02-05T06:12:20.045Z,8.60
2023-02-05T06:14:46.846Z,8.50
2023-02-05T06:17:13.664Z,8.43
2023-02-05T06:19:40.468Z,7.93
2023-02-05T06:22:07.300Z,9.03
2023-02-05T06:24:34.131Z,8.90
2023-02-05T06:27:01.265Z,10.17
2023-02-05T06:29:28.064Z,8.63
2023-02-05T06:31:54.908Z,9.60
2023-02-05T06:34:21.910Z,10.93
2023-02-05T06:36:48.712Z,10.30
2023-02-05T06:39:15.517Z,10.97
2023-02-05T06:41:42.379Z,12.47
2023-02-05T06:44:09.350Z,11.53
2023-02-05T06:46:36.303Z,10.97
2023-02-05T06:49:03.165Z,9.70
2023-02-05T06:51:30.025Z,9.20
2023-02-05T06:53:57.563Z,10.37
2023-02-05T06:56:24.696Z,9.03
2023-02-05T06:58:51.618Z,9.43
2023-02-05T07:01:18.757Z,11.23
2023-02-05T07:03:45.816Z,10.30
2023-02-05T07:06:12.869Z,8.17
2023-02-05T07:08:39.791Z,7.23
2023-02-05T07:11:06.652Z,6.57
2023-02-05T07:13:33.494Z,5.83
2023-02-05T07:16:03.783Z,6.27
2023-02-05T07:18:30.804Z,6.70
2023-02-05T07:20:57.642Z,6.20
2023-02-05T07:23:24.562Z,5.80
2023-02-05T07:25:51.438Z,6.33
2023-02-05T07:28:18.300Z,9.00
2023-02-05T07:30:45.211Z,11.23
2023-02-05T07:33:12.165Z,10.63
2023-02-05T07:35:39.551Z,10.73
2023-02-05T07:38:06.418Z,9.53
2023-02-05T07:40:33.349Z,9.07
2023-02-05T07:43:00.237Z,10.27
2023-02-05T07:45:27.122Z,10.30
2023-02-05T07:47:54.071Z,10.13
2023-02-05T07:50:21.103Z,9.27
2023-02-05T07:52:48.039Z,9.30
2023-02-05T07:55:14.988Z,9.37
2023-02-05T07:57:41.889Z,7.67
2023-02-05T08:00:09.909Z,8.10
2023-02-05T08:02:36.912Z,7.60
2023-02-05T08:05:03.864Z,7.53
2023-02-05T08:07:30.708Z,7.30
2023-02-05T08:09:57.632Z,8.40
2023-02-05T08:12:24.576Z,6.57
2023-02-05T08:14:52.829Z,7.73
2023-02-05T08:17:19.701Z,7.93
2023-02-05T08:19:46.530Z,7.80
2023-02-05T08:22:13.427Z,6.00
2023-02-05T08:24:40.268Z,5.95
2023-02-05T08:27:07.159Z,5.55
2023-02-05T08:29:34.023Z,5.50
2023-02-05T08:32:00.922Z,5.82
2023-02-05T08:34:28.312Z,5.35
2023-02-05T08:36:57.253Z,5.60
2023-02-05T08:39:26.125Z,6.07
2023-02-05T08:41:54.068Z,5.85
2023-02-05T08:44:22.502Z,6.03
2023-02-05T08:46:50.541Z,6.50
2023-02-05T08:49:17.886Z,5.30
2023-02-05T08:51:44.888Z,5.65
2023-02-05T08:54:13.498Z,5.05
2023-02-05T08:56:41.265Z,4.90
2023-02-05T08:59:09.126Z,5.13
2023-02-05T09:01:43.145Z,4.50
2023-02-05T09:04:18.673Z,4.70
2023-02-05T09:06:45.873Z,5.40
2023-02-05T09:09:13.818Z,5.00
2023-02-05T09:11:40.850Z,5.80
2023-02-05T09:14:08.535Z,5.20
2023-02-05T09:16:35.545Z,5.78
2023-02-05T09:19:02.711Z,5.80
2023-02-05T09:21:29.704Z,5.70
2023-02-05T09:23:57.563Z,5.68
2023-02-05T09:26:25.484Z,4.82
2023-02-05T09:28:52.329Z,5.50
2023-02-05T09:31:21.452Z,5.82
2023-02-05T09:33:48.527Z,5.43
2023-02-05T09:36:21.954Z,5.07
2023-02-05T09:38:50.262Z,6.40
2023-02-05T09:41:29.757Z,5.95
2023-02-05T09:44:04.320Z,5.90
2023-02-05T09:46:46.152Z,5.97
2023-02-05T09:49:16.098Z,4.65
2023-02-05T09:51:50.548Z,4.28
2023-02-05T09:54:26.112Z,4.18
2023-02-05T09:56:56.355Z,4.13
2023-02-05T09:59:26.561Z,3.83
2023-02-05T10:02:00.436Z,3.55
2023-02-05T10:04:28.088Z,3.97
2023-02-05T10:07:24.259Z,4.00
2023-02-05T10:10:16.040Z,4.07
2023-02-05T10:12:59.597Z,4.53
2023-02-05T10:15:56.869Z,4.13
2023-02-05T10:18:51.566Z,4.17
2023-02-05T10:21:37.226Z,3.60
2023-02-05T10:24:17.292Z,4.33
2023-02-05T10:26:51.590Z,3.40
2023-02-05T10:29:53.643Z,2.00
2023-02-05T10:32:34.427Z,2.20
2023-02-05T10:35:06.111Z,1.50
2023-02-05T10:37:45.141Z,1.40
2023-02-05T10:40:18.179Z,1.10
2023-02-05T10:43:17.422Z,1.50
2023-02-05T10:45:45.023Z,1.70
2023-02-05T10:48:22.957Z,1.43
2023-02-05T10:50:53.619Z,3.33
2023-02-05T10:53:23.402Z,2.40
2023-02-05T10:55:51.146Z,6.33
2023-02-05T10:58:50.858Z,2.60
2023-02-05T11:01:33.610Z,2.97
2023-02-05T11:04:11.910Z,2.60
2023-02-05T11:06:45.660Z,2.53
2023-02-05T11:09:24.894Z,2.90
2023-02-05T11:11:53.054Z,2.67
2023-02-05T11:14:36.371Z,2.40
2023-02-05T11:17:09.274Z,2.63
2023-02-05T11:19:36.759Z,2.73
2023-02-05T11:22:05.361Z,2.57
2023-02-05T11:24:36.343Z,2.30
2023-02-05T11:27:15.385Z,2.37
2023-02-05T11:29:42.833Z,2.30
2023-02-05T11:32:31.569Z,2.50
2023-02-05T11:35:20.845Z,1.77
2023-02-05T11:37:50.757Z,2.27
2023-02-05T11:40:31.056Z,2.40
2023-02-05T11:43:29.567Z,2.20
2023-02-05T11:45:58.984Z,2.03
2023-02-05T11:48:29.256Z,1.70
2023-02-05T11:50:56.302Z,1.93
2023-02-05T11:53:24.237Z,1.50
2023-02-05T11:56:00.310Z,1.40
2023-02-05T11:58:37.000Z,2.30
2023-02-05T12:01:08.168Z,3.03
2023-02-05T12:03:35.588Z,1.90
2023-02-05T12:06:18.437Z,2.00
2023-02-05T12:08:53.436Z,1.60
2023-02-05T12:12:04.207Z,1.50
2023-02-05T12:14:42.208Z,1.83
2023-02-05T12:17:42.379Z,1.70
2023-02-05T12:20:21.892Z,1.70
2023-02-05T12:23:00.964Z,1.90
2023-02-05T12:25:42.970Z,2.17
2023-02-05T12:28:28.752Z,2.33
2023-02-05T12:31:32.950Z,2.10
2023-02-05T12:34:24.710Z,2.33
2023-02-05T12:37:22.489Z,1.77
2023-02-05T12:39:54.876Z,2.20
2023-02-05T12:42:39.897Z,2.10
2023-02-05T12:45:29.811Z,2.30
2023-02-05T12:48:11.819Z,2.40
2023-02-05T12:51:07.416Z,2.33
2023-02-05T12:53:57.590Z,2.40
2023-02-05T12:56:46.064Z,2.17
2023-02-05T12:59:18.929Z,3.87
2023-02-05T13:01:53.051Z,4.87
2023-02-05T13:04:35.188Z,2.57
2023-02-05T13:07:30.797Z,2.37
2023-02-05T13:10:04.602Z,2.10
2023-02-05T13:12:40.519Z,2.27
2023-02-05T13:15:30.339Z,2.23
2023-02-05T13:18:07.226Z,11.77
2023-02-05T13:21:03.321Z,3.50
2023-02-05T13:23:53.151Z,2.90
2023-02-05T13:26:47.394Z,2.97
2023-02-05T13:29:17.546Z,2.50
2023-02-05T13:31:49.191Z,5.00
2023-02-05T13:34:17.840Z,2.97
2023-02-05T13:37:22.313Z,3.60
2023-02-05T13:39:57.769Z,2.90
2023-02-05T13:42:49.614Z,3.13
2023-02-05T13:45:35.049Z,2.20
2023-02-05T13:48:53.281Z,2.43
2023-02-05T13:51:49.128Z,2.73
2023-02-05T13:54:38.294Z,2.70
2023-02-05T13:57:42.670Z,2.87
2023-02-05T14:00:14.322Z,2.50
2023-02-05T14:02:44.305Z,2.50
2023-02-05T14:05:14.056Z,3.23
2023-02-05T14:07:51.579Z,3.53
2023-02-05T14:10:30.016Z,3.63
2023-02-05T14:13:16.882Z,3.40
2023-02-05T14:15:44.643Z,2.70
2023-02-05T14:18:32.721Z,2.80
2023-02-05T14:20:59.619Z,3.37
2023-02-05T14:23:49.139Z,2.90
2023-02-05T14:26:17.032Z,2.60
2023-02-05T14:28:46.906Z,2.70
2023-02-05T14:31:45.746Z,3.07
2023-02-05T14:34:32.299Z,2.53
2023-02-05T14:37:00.219Z,3.20
2023-02-05T14:39:33.860Z,2.80
2023-02-05T14:42:05.458Z,3.23
2023-02-05T14:44:35.361Z,2.93
2023-02-05T14:47:26.334Z,2.60
2023-02-05T14:50:06.995Z,3.30
2023-02-05T14:52:46.988Z,2.97
2023-02-05T14:55:13.820Z,2.50
2023-02-05T14:58:06.301Z,2.80
2023-02-05T15:00:36.235Z,2.77
2023-02-05T15:03:06.278Z,3.03
2023-02-05T15:05:48.853Z,2.57
2023-02-05T15:08:34.504Z,3.40
2023-02-05T15:11:10.068Z,3.20
2023-02-05T15:13:37.036Z,3.20
2023-02-05T15:16:06.702Z,3.00
2023-02-05T15:18:38.726Z,2.87
2023-02-05T15:21:07.841Z,3.40
2023-02-05T15:23:46.432Z,3.23
2023-02-05T15:26:47.599Z,3.40
2023-02-05T15:29:27.709Z,3.70
2023-02-05T15:31:58.712Z,4.03
2023-02-05T15:34:51.483Z,3.63
2023-02-05T15:37:23.614Z,3.77
2023-02-05T15:40:09.804Z,3.90
2023-02-05T15:42:42.573Z,4.20
2023-02-05T15:45:26.407Z,3.73
2023-02-05T15:48:07.434Z,3.20
2023-02-05T15:50:37.708Z,3.40
2023-02-05T15:53:08.859Z,3.53
2023-02-05T15:55:36.090Z,3.37
2023-02-05T15:58:06.164Z,3.53
2023-02-05T16:00:45.787Z,4.07
2023-02-05T16:03:26.136Z,3.60
2023-02-05T16:05:53.798Z,3.77
2023-02-05T16:08:23.550Z,3.60
2023-02-05T16:10:57.896Z,4.23
2023-02-05T16:13:26.645Z,4.07
2023-02-05T16:16:01.103Z,3.83
2023-02-05T16:18:35.913Z,3.37
2023-02-05T16:21:14.204Z,3.30
2023-02-05T16:23:49.310Z,3.63
2023-02-05T16:26:34.644Z,3.83
2023-02-05T16:29:07.836Z,4.50
2023-02-05T16:31:37.644Z,5.27
2023-02-05T16:34:18.316Z,18.33
2023-02-05T16:36:48.258Z,33.07
2023-02-05T16:39:22.612Z,31.53
2023-02-05T16:42:21.063Z,41.20
2023-02-05T16:44:48.823Z,33.83
2023-02-05T16:47:18.179Z,26.07
2023-02-05T16:49:47.197Z,21.83
2023-02-05T16:52:43.134Z,23.77
2023-02-05T16:55:39.125Z,18.63
2023-02-05T16:58:06.613Z,15.17
2023-02-05T17:00:34.381Z,10.73
2023-02-05T17:03:08.184Z,9.50
2023-02-05T17:05:37.156Z,7.73
2023-02-05T17:08:07.167Z,6.90
2023-02-05T17:10:51.055Z,6.60
2023-02-05T17:13:37.708Z,7.00
2023-02-05T17:16:21.195Z,7.43
2023-02-05T17:19:47.154Z,10.87
2023-02-05T17:22:14.326Z,41.33
2023-02-05T17:24:42.874Z,78.40
2023-02-05T17:27:14.701Z,53.63
2023-02-05T17:29:41.882Z,50.70
2023-02-05T17:32:17.065Z,62.50
2023-02-05T17:34:45.081Z,76.30
2023-02-05T17:37:11.981Z,67.10
2023-02-05T17:39:38.997Z,68.70
2023-02-05T17:42:07.894Z,64.00
2023-02-05T17:44:38.534Z,60.87
2023-02-05T17:47:06.723Z,55.43
2023-02-05T17:49:36.460Z,53.17
2023-02-05T17:52:03.454Z,44.13
2023-02-05T17:54:31.181Z,47.70
2023-02-05T17:57:06.586Z,49.43
2023-02-05T17:59:35.578Z,43.30
2023-02-05T18:02:04.646Z,44.47
2023-02-05T18:04:31.611Z,38.33
2023-02-05T18:06:58.794Z,33.47
2023-02-05T18:09:25.619Z,31.80
2023-02-05T18:11:52.562Z,29.33
2023-02-05T18:14:19.715Z,25.80
2023-02-05T18:16:46.742Z,26.23
2023-02-05T18:19:14.022Z,33.10
2023-02-05T18:21:41.020Z,36.90
2023-02-05T18:24:07.944Z,33.27
2023-02-05T18:26:34.873Z,33.90
2023-02-05T18:29:01.869Z,33.40
2023-02-05T18:31:28.863Z,32.83
2023-02-05T18:33:55.784Z,33.90
2023-02-05T18:36:23.245Z,33.20
2023-02-05T18:38:50.124Z,36.13
2023-02-05T18:41:23.625Z,36.63
2023-02-05T18:43:54.428Z,33.67
2023-02-05T18:46:22.677Z,31.83
2023-02-05T18:48:50.356Z,30.27
2023-02-05T18:51:22.229Z,29.83
2023-02-05T18:53:50.580Z,32.20
2023-02-05T18:56:26.250Z,30.57
2023-02-05T18:59:02.285Z,35.93
2023-02-05T19:01:35.246Z,32.73
2023-02-05T19:04:04.436Z,34.00
2023-02-05T19:06:32.030Z,34.17
2023-02-05T19:09:00.686Z,33.70
2023-02-05T19:11:29.457Z,32.47
2023-02-05T19:13:57.638Z,34.50
2023-02-05T19:16:25.890Z,35.23
2023-02-05T19:18:52.852Z,34.03
2023-02-05T19:21:21.675Z,33.90
2023-02-05T19:23:54.216Z,36.90
2023-02-05T19:26:23.766Z,61.87
2023-02-05T19:28:58.947Z,74.93
2023-02-05T19:31:27.941Z,87.90
2023-02-05T19:33:56.437Z,68.43
2023-02-05T19:36:26.247Z,65.67
2023-02-05T19:38:53.997Z,71.23
2023-02-05T19:41:23.642Z,66.13
2023-02-05T19:43:56.270Z,75.80
2023-02-05T19:46:29.259Z,149.07
2023-02-05T19:48:59.340Z,111.17
2023-02-05T19:51:26.316Z,76.57
2023-02-05T19:53:55.905Z,50.07
2023-02-05T19:56:23.727Z,72.97
2023-02-05T19:58:53.592Z,84.53
2023-02-05T20:01:26.969Z,65.07
2023-02-05T20:03:56.737Z,59.67
2023-02-05T20:06:26.652Z,51.17
2023-02-05T20:08:54.372Z,52.63
2023-02-05T20:11:21.562Z,53.20
2023-02-05T20:13:48.771Z,56.50
2023-02-05T20:16:18.974Z,59.23
2023-02-05T20:18:47.220Z,55.73
2023-02-05T20:21:18.919Z,56.37
2023-02-05T20:23:47.002Z,49.97
2023-02-05T20:26:14.707Z,51.87
2023-02-05T20:29:00.658Z,50.00
2023-02-05T20:31:35.234Z,51.93
2023-02-05T20:34:23.253Z,49.40
2023-02-05T20:36:52.918Z,44.40
2023-02-05T20:39:21.585Z,34.73
2023-02-05T20:41:50.675Z,31.43
2023-02-05T20:44:18.538Z,24.20
2023-02-05T20:46:46.018Z,22.80
2023-02-05T20:49:13.029Z,18.17
2023-02-05T20:51:40.436Z,18.70
2023-02-05T20:54:07.884Z,40.47
2023-02-05T20:56:35.649Z,45.90
2023-02-05T20:59:05.242Z,35.13
2023-02-05T21:01:34.020Z,31.07
2023-02-05T21:04:02.906Z,31.13
2023-02-05T21:06:32.499Z,35.57
2023-02-05T21:08:59.342Z,39.70
2023-02-05T21:11:27.615Z,38.93
2023-02-05T21:13:54.971Z,37.50
2023-02-05T21:16:23.727Z,40.10
2023-02-05T21:18:51.569Z,35.73
2023-02-05T21:21:21.547Z,36.33
2023-02-05T21:23:48.988Z,31.13
2023-02-05T21:26:25.268Z,29.00
2023-02-05T21:28:53.886Z,25.60
2023-02-05T21:31:20.785Z,24.63
2023-02-05T21:33:48.162Z,24.63
2023-02-05T21:36:15.894Z,28.27
2023-02-05T21:38:42.898Z,23.03
2023-02-05T21:41:10.827Z,20.73
2023-02-05T21:43:38.008Z,15.83
2023-02-05T21:46:09.935Z,13.57
2023-02-05T21:48:37.066Z,13.33
2023-02-05T21:51:08.333Z,12.20
2023-02-05T21:53:35.548Z,12.83
2023-02-05T21:56:03.922Z,12.93
2023-02-05T21:58:36.941Z,13.53
2023-02-05T22:01:40.876Z,13.57
2023-02-05T22:04:13.853Z,13.47
2023-02-05T22:06:41.280Z,14.80
2023-02-05T22:09:10.767Z,14.97
2023-02-05T22:11:39.455Z,13.50
2023-02-05T22:14:07.535Z,12.93
2023-02-05T22:16:35.578Z,14.90
2023-02-05T22:19:03.085Z,14.53
2023-02-05T22:21:41.552Z,14.87
2023-02-05T22:24:15.802Z,33.00
2023-02-05T22:26:43.663Z,41.87
2023-02-05T22:29:20.993Z,63.17
2023-02-05T22:31:52.797Z,64.10
2023-02-05T22:34:20.535Z,61.53
2023-02-05T22:36:47.810Z,77.13
2023-02-05T22:39:14.649Z,56.03
2023-02-05T22:41:43.048Z,38.70
2023-02-05T22:44:11.577Z,38.83
2023-02-05T22:46:42.055Z,57.27
2023-02-05T22:49:10.425Z,55.57
2023-02-05T22:51:39.627Z,58.83
2023-02-05T22:54:07.983Z,55.60
2023-02-05T22:56:34.889Z,42.67
2023-02-05T22:59:03.397Z,37.20
2023-02-05T23:01:33.248Z,40.13
2023-02-05T23:04:01.274Z,31.93
2023-02-05T23:06:33.634Z,31.50
2023-02-05T23:09:17.826Z,27.17
2023-02-05T23:11:45.029Z,38.47
2023-02-05T23:14:16.082Z,38.40
2023-02-05T23:16:45.233Z,41.33
2023-02-05T23:19:16.273Z,53.57
2023-02-05T23:21:43.439Z,73.47
2023-02-05T23:24:10.858Z,61.43
2023-02-05T23:26:42.184Z,61.53
2023-02-05T23:29:10.552Z,53.17
2023-02-05T23:31:37.558Z,52.37
2023-02-05T23:34:04.788Z,41.70
2023-02-05T23:36:31.922Z,38.00
2023-02-05T23:38:58.967Z,33.80
2023-02-05T23:41:39.881Z,31.27
2023-02-05T23:44:20.312Z,31.43
2023-02-05T23:46:48.574Z,31.23
2023-02-05T23:49:16.744Z,37.03
2023-02-05T23:51:43.607Z,35.17
2023-02-05T23:54:11.487Z,36.93
2023-02-05T23:56:38.707Z,37.33
2023-02-05T23:59:07.251Z,38.27
